createdAt,value
2019-04-14T00:00:05.360Z,0
2019-04-14T00:01:17.155Z,0
2019-04-14T00:02:29.266Z,0
2019-04-14T00:03:41.075Z,0
2019-04-14T00:04:52.636Z,0
2019-04-14T00:06:04.698Z,0
2019-04-14T00:07:16.844Z,0
2019-04-14T00:08:28.158Z,0
2019-04-14T00:09:40.183Z,0
2019-04-14T00:10:51.362Z,0
2019-04-14T00:12:07.131Z,0
2019-04-14T00:13:19.858Z,0
2019-04-14T00:14:31.550Z,0
2019-04-14T00:15:58.752Z,0
2019-04-14T00:17:09.338Z,0
2019-04-14T00:18:19.130Z,0
2019-04-14T00:19:28.714Z,0
2019-04-14T00:20:38.901Z,0
2019-04-14T00:21:50.183Z,0
2019-04-14T00:23:02.216Z,0
2019-04-14T00:24:12.647Z,0
2019-04-14T00:25:23.704Z,0
2019-04-14T00:26:35.908Z,0
2019-04-14T00:27:45.994Z,0
2019-04-14T00:28:57.759Z,0
2019-04-14T00:30:08.295Z,0
2019-04-14T00:31:18.052Z,0
2019-04-14T00:32:29.283Z,0
2019-04-14T00:33:39.467Z,0
2019-04-14T00:34:49.198Z,0
2019-04-14T00:36:00.447Z,0
2019-04-14T00:37:11.979Z,0
2019-04-14T00:38:23.758Z,0
2019-04-14T00:39:34.354Z,0
2019-04-14T00:40:45.640Z,0
2019-04-14T00:42:10.081Z,0
2019-04-14T00:43:20.699Z,0
2019-04-14T00:44:30.138Z,0
2019-04-14T00:46:05.825Z,0
2019-04-14T00:47:17.826Z,0
2019-04-14T00:48:32.371Z,0
2019-04-14T00:49:43.967Z,0
2019-04-14T00:50:55.937Z,0
2019-04-14T00:52:08.060Z,0
2019-04-14T00:53:20.560Z,0
2019-04-14T00:54:32.448Z,0
2019-04-14T00:55:42.864Z,0
2019-04-14T00:56:54.072Z,0
2019-04-14T00:58:04.419Z,0
2019-04-14T00:59:15.644Z,0
2019-04-14T01:00:29.662Z,0
2019-04-14T01:01:41.316Z,0
2019-04-14T01:02:52.251Z,0
2019-04-14T01:04:03.376Z,0
2019-04-14T01:05:13.723Z,0
2019-04-14T01:06:24.977Z,0
2019-04-14T01:07:36.898Z,0
2019-04-14T01:08:48.863Z,0
2019-04-14T01:09:59.821Z,0
2019-04-14T01:11:11.963Z,0
2019-04-14T01:12:23.421Z,0
2019-04-14T01:13:33.754Z,0
2019-04-14T01:14:43.818Z,0
2019-04-14T01:16:25.344Z,0
2019-04-14T01:17:37.705Z,0
2019-04-14T01:18:49.469Z,0
2019-04-14T01:19:59.910Z,0
2019-04-14T01:21:11.273Z,0
2019-04-14T01:22:22.685Z,0
2019-04-14T01:23:34.696Z,0
2019-04-14T01:24:46.736Z,0
2019-04-14T01:25:57.062Z,0
2019-04-14T01:27:08.019Z,0
2019-04-14T01:28:18.544Z,0
2019-04-14T01:29:28.150Z,0
2019-04-14T01:30:39.343Z,0
2019-04-14T01:31:49.679Z,0
2019-04-14T01:33:01.007Z,0
2019-04-14T01:34:11.510Z,0
2019-04-14T01:35:22.808Z,0
2019-04-14T01:36:32.879Z,0
2019-04-14T01:37:44.272Z,0
2019-04-14T01:38:55.967Z,0
2019-04-14T01:40:07.415Z,0
2019-04-14T01:41:19.233Z,0
2019-04-14T01:42:30.955Z,0
2019-04-14T01:43:42.940Z,0
2019-04-14T01:44:54.536Z,0
2019-04-14T01:46:35.821Z,0
2019-04-14T01:47:47.252Z,0
2019-04-14T01:48:56.952Z,0
2019-04-14T01:50:06.944Z,0
2019-04-14T01:51:16.401Z,0
2019-04-14T01:52:27.666Z,0
2019-04-14T01:53:39.991Z,0
2019-04-14T01:54:51.851Z,0
2019-04-14T01:56:02.008Z,0
2019-04-14T01:57:13.095Z,0
2019-04-14T01:58:25.282Z,0
2019-04-14T01:59:36.932Z,0
2019-04-14T02:00:49.256Z,0
2019-04-14T02:01:59.258Z,0
2019-04-14T02:03:10.563Z,0
2019-04-14T02:04:20.990Z,0
2019-04-14T02:05:32.137Z,0
2019-04-14T02:06:43.787Z,0
2019-04-14T02:07:56.112Z,0
2019-04-14T02:09:07.749Z,0
2019-04-14T02:10:17.889Z,0
2019-04-14T02:11:28.794Z,0
2019-04-14T02:12:41.106Z,0
2019-04-14T02:13:52.780Z,0
2019-04-14T02:15:04.962Z,0
2019-04-14T02:16:57.025Z,0
2019-04-14T02:18:09.795Z,0
2019-04-14T02:19:20.492Z,0
2019-04-14T02:20:31.772Z,0
2019-04-14T02:21:41.743Z,0
2019-04-14T02:22:51.200Z,0
2019-04-14T02:24:02.818Z,0
2019-04-14T02:25:14.402Z,0
2019-04-14T02:26:26.407Z,0
2019-04-14T02:27:36.804Z,0
2019-04-14T02:28:50.328Z,0
2019-04-14T02:30:03.793Z,0
2019-04-14T02:33:38.769Z,0
2019-04-14T02:37:43.038Z,0
2019-04-14T02:41:56.478Z,0
2019-04-14T02:45:56.851Z,0
2019-04-14T02:54:11.564Z,0
2019-04-14T02:58:09.696Z,0
2019-04-14T03:05:51.123Z,0
2019-04-14T03:09:52.051Z,0
2019-04-14T03:14:14.944Z,0
2019-04-14T03:22:55.125Z,0
2019-04-14T03:26:04.536Z,0
2019-04-14T03:30:16.084Z,0
2019-04-14T03:34:32.366Z,0
2019-04-14T03:38:52.118Z,0
2019-04-14T03:42:53.672Z,0
2019-04-14T03:46:48.868Z,0
2019-04-14T03:50:51.852Z,0
2019-04-14T03:54:39.742Z,0
2019-04-14T03:56:19.996Z,0
2019-04-14T03:57:37.422Z,0
2019-04-14T03:58:47.249Z,0
2019-04-14T03:59:57.096Z,0
2019-04-14T04:01:08.515Z,0
2019-04-14T04:02:20.354Z,0
2019-04-14T04:03:32.730Z,0
2019-04-14T04:04:43.077Z,0
2019-04-14T04:05:52.799Z,0
2019-04-14T04:07:04.213Z,0
2019-04-14T04:08:15.697Z,0
2019-04-14T04:09:27.766Z,0
2019-04-14T04:10:38.519Z,0
2019-04-14T04:11:49.883Z,0
2019-04-14T04:13:01.738Z,0
2019-04-14T04:14:14.124Z,0
2019-04-14T04:15:24.246Z,0
2019-04-14T04:16:35.422Z,0
2019-04-14T04:17:45.692Z,0
2019-04-14T04:19:22.939Z,0
2019-04-14T04:20:34.886Z,0
2019-04-14T04:21:45.113Z,0
2019-04-14T04:22:55.159Z,5
2019-04-14T04:24:06.355Z,5
2019-04-14T04:25:16.402Z,5
2019-04-14T04:26:26.233Z,5
2019-04-14T04:27:36.182Z,5
2019-04-14T04:28:47.414Z,5
2019-04-14T04:29:59.111Z,10
2019-04-14T04:31:10.730Z,10
2019-04-14T04:32:22.914Z,10
2019-04-14T04:33:34.607Z,10
2019-04-14T04:34:45.070Z,10
2019-04-14T04:35:55.057Z,10
2019-04-14T04:37:05.827Z,10
2019-04-14T04:38:18.007Z,10
2019-04-14T04:39:28.587Z,10
2019-04-14T04:40:39.611Z,10
2019-04-14T04:41:51.479Z,10
2019-04-14T04:43:02.036Z,10
2019-04-14T04:44:12.189Z,10
2019-04-14T04:45:23.553Z,10
2019-04-14T04:46:35.066Z,10
2019-04-14T04:47:45.541Z,10
2019-04-14T04:49:30.510Z,10
2019-04-14T04:50:43.047Z,10
2019-04-14T04:51:55.027Z,10
2019-04-14T04:53:06.827Z,10
2019-04-14T04:54:18.734Z,10
2019-04-14T04:55:29.205Z,10
2019-04-14T04:56:39.102Z,10
2019-04-14T04:57:48.836Z,15
2019-04-14T04:58:59.726Z,15
2019-04-14T05:00:09.936Z,15
2019-04-14T05:01:20.916Z,15
2019-04-14T05:02:31.685Z,10
2019-04-14T05:03:41.393Z,15
2019-04-14T05:04:51.180Z,15
2019-04-14T05:06:02.855Z,15
2019-04-14T05:07:14.695Z,15
2019-04-14T05:08:24.689Z,15
2019-04-14T05:09:34.607Z,15
2019-04-14T05:10:45.499Z,15
2019-04-14T05:12:02.732Z,15
2019-04-14T05:13:12.672Z,15
2019-04-14T05:14:22.615Z,15
2019-04-14T05:15:33.818Z,15
2019-04-14T05:16:44.421Z,15
2019-04-14T05:17:55.879Z,15
2019-04-14T05:19:42.010Z,15
2019-04-14T05:20:55.211Z,15
2019-04-14T05:22:05.518Z,15
2019-04-14T05:23:15.314Z,15
2019-04-14T05:24:25.156Z,15
2019-04-14T05:25:35.093Z,15
2019-04-14T05:26:46.448Z,20
2019-04-14T05:27:58.209Z,20
2019-04-14T05:29:09.887Z,25
2019-04-14T05:30:22.095Z,25
2019-04-14T05:31:36.886Z,25
2019-04-14T05:32:48.184Z,25
2019-04-14T05:33:58.573Z,25
2019-04-14T05:35:09.492Z,30
2019-04-14T05:36:21.133Z,30
2019-04-14T05:37:33.220Z,30
2019-04-14T05:38:45.789Z,35
2019-04-14T05:39:56.876Z,35
2019-04-14T05:41:09.339Z,35
2019-04-14T05:42:34.509Z,40
2019-04-14T05:44:08.409Z,50
2019-04-14T05:45:19.734Z,50
2019-04-14T05:46:30.281Z,50
2019-04-14T05:47:41.362Z,55
2019-04-14T05:48:53.494Z,55
2019-04-14T05:50:07.474Z,60
2019-04-14T05:51:22.935Z,60
2019-04-14T05:52:34.365Z,55
2019-04-14T05:53:46.105Z,55
2019-04-14T05:54:57.848Z,65
2019-04-14T05:56:10.251Z,65
2019-04-14T05:57:21.894Z,70
2019-04-14T05:58:32.517Z,80
2019-04-14T05:59:42.254Z,70
2019-04-14T06:00:57.971Z,75
2019-04-14T06:02:09.798Z,70
2019-04-14T06:03:19.674Z,75
2019-04-14T06:04:31.051Z,75
2019-04-14T06:05:42.889Z,70
2019-04-14T06:06:52.608Z,65
2019-04-14T06:08:04.900Z,65
2019-04-14T06:09:14.334Z,60
2019-04-14T06:10:24.035Z,55
2019-04-14T06:11:33.738Z,55
2019-04-14T06:12:43.686Z,45
2019-04-14T06:13:53.383Z,50
2019-04-14T06:15:03.096Z,50
2019-04-14T06:16:12.812Z,55
2019-04-14T06:17:22.781Z,50
2019-04-14T06:18:32.727Z,55
2019-04-14T06:19:48.696Z,50
2019-04-14T06:20:57.888Z,45
2019-04-14T06:22:07.603Z,55
2019-04-14T06:23:17.545Z,55
2019-04-14T06:24:27.487Z,55
2019-04-14T06:25:38.918Z,55
2019-04-14T06:26:48.652Z,60
2019-04-14T06:27:58.342Z,60
2019-04-14T06:29:08.264Z,70
2019-04-14T06:30:18.207Z,75
2019-04-14T06:31:28.150Z,75
2019-04-14T06:32:38.099Z,80
2019-04-14T06:33:48.062Z,70
2019-04-14T06:34:57.768Z,60
2019-04-14T06:36:07.462Z,60
2019-04-14T06:37:17.148Z,60
2019-04-14T06:38:26.836Z,60
2019-04-14T06:39:36.840Z,60
2019-04-14T06:40:46.785Z,60
2019-04-14T06:41:56.734Z,65
2019-04-14T06:43:06.678Z,65
2019-04-14T06:44:16.618Z,80
2019-04-14T06:45:26.057Z,85
2019-04-14T06:46:36.605Z,85
2019-04-14T06:47:46.280Z,75
2019-04-14T06:48:55.972Z,80
2019-04-14T06:50:05.914Z,90
2019-04-14T06:51:15.894Z,100
2019-04-14T06:52:25.846Z,90
2019-04-14T06:53:35.553Z,80
2019-04-14T06:54:45.508Z,85
2019-04-14T06:55:57.468Z,80
2019-04-14T06:57:07.415Z,85
2019-04-14T06:58:17.391Z,75
2019-04-14T06:59:27.331Z,75
2019-04-14T07:00:37.055Z,80
2019-04-14T07:01:48.640Z,80
2019-04-14T07:02:58.336Z,75
2019-04-14T07:04:08.305Z,75
2019-04-14T07:05:18.443Z,75
2019-04-14T07:06:28.400Z,70
2019-04-14T07:07:38.342Z,70
2019-04-14T07:08:48.283Z,80
2019-04-14T07:09:58.274Z,80
2019-04-14T07:11:08.462Z,75
2019-04-14T07:12:19.082Z,70
2019-04-14T07:13:29.206Z,75
2019-04-14T07:14:41.584Z,80
2019-04-14T07:15:51.502Z,80
2019-04-14T07:17:01.450Z,75
2019-04-14T07:18:14.450Z,75
2019-04-14T07:19:24.147Z,85
2019-04-14T07:20:34.113Z,90
2019-04-14T07:21:44.012Z,90
2019-04-14T07:22:53.946Z,105
2019-04-14T07:24:03.887Z,100
2019-04-14T07:25:13.614Z,95
2019-04-14T07:26:23.316Z,90
2019-04-14T07:27:32.758Z,90
2019-04-14T07:28:42.450Z,90
2019-04-14T07:29:52.152Z,95
2019-04-14T07:31:02.107Z,90
2019-04-14T07:32:11.547Z,95
2019-04-14T07:33:21.001Z,100
2019-04-14T07:34:31.012Z,85
2019-04-14T07:35:40.702Z,90
2019-04-14T07:36:50.406Z,100
2019-04-14T07:38:00.357Z,95
2019-04-14T07:39:09.816Z,90
2019-04-14T07:40:19.516Z,100
2019-04-14T07:41:29.208Z,95
2019-04-14T07:42:38.682Z,110
2019-04-14T07:43:48.854Z,110
2019-04-14T07:44:58.552Z,105
2019-04-14T07:46:08.506Z,95
2019-04-14T07:47:18.210Z,100
2019-04-14T07:48:28.158Z,115
2019-04-14T07:49:40.068Z,130
2019-04-14T07:50:49.506Z,125
2019-04-14T07:51:59.506Z,115
2019-04-14T07:53:09.468Z,110
2019-04-14T07:54:19.427Z,115
2019-04-14T07:55:29.373Z,125
2019-04-14T07:56:39.062Z,120
2019-04-14T07:57:48.994Z,120
2019-04-14T07:58:58.943Z,130
2019-04-14T08:00:08.929Z,135
2019-04-14T08:01:18.885Z,135
2019-04-14T08:02:29.071Z,135
2019-04-14T08:03:39.013Z,120
2019-04-14T08:04:48.969Z,120
2019-04-14T08:05:58.661Z,115
2019-04-14T08:07:08.727Z,120
2019-04-14T08:08:18.683Z,125
2019-04-14T08:09:28.638Z,125
2019-04-14T08:10:38.376Z,115
2019-04-14T08:11:48.092Z,120
2019-04-14T08:12:57.796Z,120
2019-04-14T08:14:07.742Z,120
2019-04-14T08:15:17.684Z,110
2019-04-14T08:16:27.406Z,105
2019-04-14T08:17:37.121Z,100
2019-04-14T08:18:47.064Z,115
2019-04-14T08:19:57.006Z,120
2019-04-14T08:21:06.970Z,130
2019-04-14T08:22:16.666Z,120
2019-04-14T08:23:26.383Z,135
2019-04-14T08:24:36.336Z,145
2019-04-14T08:25:46.050Z,125
2019-04-14T08:26:55.740Z,140
2019-04-14T08:28:05.443Z,150
2019-04-14T08:29:15.604Z,160
2019-04-14T08:30:25.289Z,165
2019-04-14T08:31:35.255Z,180
2019-04-14T08:32:44.961Z,185
2019-04-14T08:33:55.149Z,205
2019-04-14T08:35:04.839Z,210
2019-04-14T08:36:14.778Z,220
2019-04-14T08:37:24.761Z,225
2019-04-14T08:38:34.514Z,210
2019-04-14T08:39:44.210Z,200
2019-04-14T08:40:54.195Z,195
2019-04-14T08:42:04.122Z,200
2019-04-14T08:43:13.568Z,200
2019-04-14T08:44:23.297Z,195
2019-04-14T08:45:33.008Z,190
2019-04-14T08:46:42.957Z,175
2019-04-14T08:47:52.914Z,175
2019-04-14T08:49:02.874Z,185
2019-04-14T08:50:12.621Z,185
2019-04-14T08:51:22.571Z,190
2019-04-14T08:52:33.364Z,205
2019-04-14T08:53:43.517Z,210
2019-04-14T08:54:53.473Z,235
2019-04-14T08:56:02.922Z,235
2019-04-14T08:57:12.389Z,235
2019-04-14T08:58:22.349Z,225
2019-04-14T08:59:32.291Z,205
2019-04-14T09:00:42.261Z,190
2019-04-14T09:01:52.276Z,195
2019-04-14T09:03:02.230Z,180
2019-04-14T09:04:12.177Z,180
2019-04-14T09:05:22.110Z,170
2019-04-14T09:06:32.052Z,160
2019-04-14T09:07:41.750Z,170
2019-04-14T09:08:51.703Z,165
2019-04-14T09:10:01.394Z,160
2019-04-14T09:11:11.135Z,170
2019-04-14T09:12:25.440Z,175
2019-04-14T09:13:35.422Z,180
2019-04-14T09:14:58.526Z,170
2019-04-14T09:16:08.032Z,190
2019-04-14T09:17:17.737Z,195
2019-04-14T09:18:27.676Z,190
2019-04-14T09:19:37.409Z,195
2019-04-14T09:20:59.413Z,220
2019-04-14T09:22:09.169Z,225
2019-04-14T09:23:18.873Z,235
2019-04-14T09:24:28.814Z,240
2019-04-14T09:25:38.522Z,215
2019-04-14T09:26:48.479Z,220
2019-04-14T09:27:58.182Z,220
2019-04-14T09:29:08.137Z,215
2019-04-14T09:30:18.079Z,220
2019-04-14T09:31:27.811Z,215
2019-04-14T09:32:37.743Z,225
2019-04-14T09:33:47.732Z,200
2019-04-14T09:34:57.435Z,210
2019-04-14T09:36:07.132Z,205
2019-04-14T09:37:19.387Z,190
2019-04-14T09:38:29.096Z,185
2019-04-14T09:39:38.781Z,180
2019-04-14T09:40:48.802Z,175
2019-04-14T09:41:58.764Z,150
2019-04-14T09:43:08.720Z,135
2019-04-14T09:44:18.662Z,140
2019-04-14T09:45:28.638Z,130
2019-04-14T09:46:38.589Z,135
2019-04-14T09:47:48.556Z,135
2019-04-14T09:48:58.263Z,125
2019-04-14T09:50:07.710Z,120
2019-04-14T09:51:17.656Z,120
2019-04-14T09:52:27.107Z,120
2019-04-14T09:53:36.813Z,120
2019-04-14T09:54:46.748Z,120
2019-04-14T09:55:56.702Z,115
2019-04-14T09:57:06.697Z,115
2019-04-14T09:58:16.461Z,120
2019-04-14T09:59:26.590Z,125
2019-04-14T10:00:36.691Z,125
2019-04-14T10:01:46.904Z,120
2019-04-14T10:02:56.875Z,120
2019-04-14T10:04:06.883Z,125
2019-04-14T10:05:16.873Z,120
2019-04-14T10:06:26.958Z,125
2019-04-14T10:07:36.914Z,130
2019-04-14T10:08:46.993Z,130
2019-04-14T10:09:56.787Z,125
2019-04-14T10:11:06.546Z,125
2019-04-14T10:12:16.505Z,120
2019-04-14T10:13:26.206Z,115
2019-04-14T10:14:36.170Z,120
2019-04-14T10:15:45.623Z,115
2019-04-14T10:16:55.068Z,110
2019-04-14T10:18:04.779Z,110
2019-04-14T10:19:14.742Z,100
2019-04-14T10:20:24.449Z,105
2019-04-14T10:21:34.160Z,110
2019-04-14T10:22:43.871Z,110
2019-04-14T10:23:53.820Z,110
2019-04-14T10:25:03.797Z,110
2019-04-14T10:26:13.761Z,115
2019-04-14T10:27:23.697Z,120
2019-04-14T10:28:33.655Z,120
2019-04-14T10:29:43.611Z,120
2019-04-14T10:30:53.558Z,125
2019-04-14T10:32:03.027Z,125
2019-04-14T10:33:12.727Z,125
2019-04-14T10:34:22.458Z,135
2019-04-14T10:35:32.404Z,135
2019-04-14T10:36:42.109Z,135
2019-04-14T10:37:52.073Z,130
2019-04-14T10:39:01.796Z,130
2019-04-14T10:40:13.900Z,130
2019-04-14T10:41:23.865Z,140
2019-04-14T10:42:33.829Z,125
2019-04-14T10:43:43.793Z,120
2019-04-14T10:44:53.774Z,125
2019-04-14T10:46:03.231Z,130
2019-04-14T10:47:13.179Z,125
2019-04-14T10:48:23.148Z,125
2019-04-14T10:49:33.120Z,120
2019-04-14T10:50:42.812Z,125
2019-04-14T10:51:52.750Z,120
2019-04-14T10:53:02.531Z,125
2019-04-14T10:54:12.481Z,125
2019-04-14T10:55:22.470Z,120
2019-04-14T10:56:31.984Z,125
2019-04-14T10:57:41.449Z,120
2019-04-14T10:58:50.925Z,120
2019-04-14T11:00:00.653Z,125
2019-04-14T11:01:10.631Z,125
2019-04-14T11:02:20.355Z,130
2019-04-14T11:03:30.091Z,135
2019-04-14T11:04:39.873Z,135
2019-04-14T11:05:49.832Z,135
2019-04-14T11:06:59.803Z,135
2019-04-14T11:08:09.789Z,130
2019-04-14T11:09:19.753Z,125
2019-04-14T11:10:29.797Z,125
2019-04-14T11:11:39.775Z,130
2019-04-14T11:12:49.767Z,130
2019-04-14T11:13:59.749Z,130
2019-04-14T11:15:09.709Z,135
2019-04-14T11:16:19.674Z,135
2019-04-14T11:17:29.413Z,135
2019-04-14T11:18:39.365Z,135
2019-04-14T11:19:48.812Z,135
2019-04-14T11:20:58.774Z,140
2019-04-14T11:22:08.500Z,140
2019-04-14T11:23:17.715Z,145
2019-04-14T11:24:28.895Z,150
2019-04-14T11:25:38.870Z,155
2019-04-14T11:26:48.583Z,150
2019-04-14T11:27:58.556Z,155
2019-04-14T11:29:08.534Z,165
2019-04-14T11:30:18.510Z,170
2019-04-14T11:31:27.964Z,170
2019-04-14T11:32:37.917Z,185
2019-04-14T11:33:47.867Z,200
2019-04-14T11:34:57.815Z,215
2019-04-14T11:36:07.537Z,225
2019-04-14T11:37:17.498Z,235
2019-04-14T11:38:27.484Z,240
2019-04-14T11:39:37.437Z,240
2019-04-14T11:40:47.417Z,235
2019-04-14T11:41:57.162Z,235
2019-04-14T11:43:06.944Z,235
2019-04-14T11:44:16.777Z,240
2019-04-14T11:45:26.558Z,245
2019-04-14T11:46:36.529Z,250
2019-04-14T11:47:46.247Z,240
2019-04-14T11:48:56.195Z,245
2019-04-14T11:50:06.222Z,245
2019-04-14T11:51:15.944Z,245
2019-04-14T11:52:25.908Z,255
2019-04-14T11:53:35.618Z,275
2019-04-14T11:54:45.580Z,290
2019-04-14T11:55:55.545Z,295
2019-04-14T11:57:05.526Z,300
2019-04-14T11:58:15.485Z,310
2019-04-14T11:59:25.451Z,315
2019-04-14T12:00:35.863Z,325
2019-04-14T12:01:45.605Z,335
2019-04-14T12:02:55.331Z,355
2019-04-14T12:04:05.311Z,370
2019-04-14T12:05:15.023Z,385
2019-04-14T12:06:24.722Z,445
2019-04-14T12:07:34.665Z,465
2019-04-14T12:08:45.554Z,500
2019-04-14T12:09:55.722Z,460
2019-04-14T12:11:05.413Z,420
2019-04-14T12:12:15.362Z,395
2019-04-14T12:13:25.319Z,375
2019-04-14T12:14:35.329Z,360
2019-04-14T12:15:45.037Z,335
2019-04-14T12:16:54.999Z,325
2019-04-14T12:18:04.700Z,315
2019-04-14T12:19:14.650Z,305
2019-04-14T12:20:24.364Z,300
2019-04-14T12:21:34.323Z,290
2019-04-14T12:22:44.017Z,285
2019-04-14T12:23:54.316Z,310
2019-04-14T12:25:03.805Z,315
2019-04-14T12:26:15.230Z,325
2019-04-14T12:27:25.175Z,330
2019-04-14T12:28:36.591Z,340
2019-04-14T12:29:46.031Z,340
2019-04-14T12:30:56.145Z,360
2019-04-14T12:32:06.759Z,395
2019-04-14T12:33:16.722Z,410
2019-04-14T12:34:27.821Z,405
2019-04-14T12:35:37.548Z,410
2019-04-14T12:36:47.497Z,415
2019-04-14T12:37:57.195Z,430
2019-04-14T12:39:07.192Z,445
2019-04-14T12:40:17.209Z,455
2019-04-14T12:41:27.055Z,450
2019-04-14T12:42:36.559Z,455
2019-04-14T12:43:46.014Z,460
2019-04-14T12:44:55.711Z,460
2019-04-14T12:46:08.637Z,420
2019-04-14T12:47:18.330Z,385
2019-04-14T12:48:28.318Z,360
2019-04-14T12:49:38.048Z,355
2019-04-14T12:50:47.504Z,350
2019-04-14T12:51:57.488Z,350
2019-04-14T12:53:07.442Z,345
2019-04-14T12:54:18.841Z,335
2019-04-14T12:55:28.528Z,330
2019-04-14T12:56:38.478Z,335
2019-04-14T12:57:48.196Z,365
2019-04-14T12:58:57.926Z,385
2019-04-14T13:00:07.614Z,420
2019-04-14T13:01:17.334Z,470
2019-04-14T13:02:27.058Z,560
2019-04-14T13:03:37.105Z,665
2019-04-14T13:04:47.121Z,630
2019-04-14T13:05:57.098Z,680
2019-04-14T13:07:06.790Z,755
2019-04-14T13:08:16.747Z,755
2019-04-14T13:09:26.479Z,780
2019-04-14T13:10:36.201Z,980
2019-04-14T13:11:46.148Z,1015
2019-04-14T13:12:55.855Z,915
2019-04-14T13:14:06.420Z,810
2019-04-14T13:15:16.159Z,730
2019-04-14T13:16:25.907Z,645
2019-04-14T13:17:35.616Z,565
2019-04-14T13:18:45.580Z,530
2019-04-14T13:19:55.570Z,490
2019-04-14T13:21:05.499Z,450
2019-04-14T13:22:15.468Z,440
2019-04-14T13:23:25.416Z,445
2019-04-14T13:24:35.194Z,455
2019-04-14T13:25:45.157Z,455
2019-04-14T13:26:55.116Z,440
2019-04-14T13:28:04.868Z,425
2019-04-14T13:29:14.824Z,420
2019-04-14T13:30:24.799Z,425
2019-04-14T13:31:34.767Z,420
2019-04-14T13:32:45.447Z,430
2019-04-14T13:33:57.362Z,440
2019-04-14T13:35:07.323Z,450
2019-04-14T13:36:16.857Z,450
2019-04-14T13:37:26.582Z,450
2019-04-14T13:38:36.531Z,460
2019-04-14T13:39:46.484Z,455
2019-04-14T13:40:56.456Z,440
2019-04-14T13:42:06.427Z,410
2019-04-14T13:43:16.397Z,385
2019-04-14T13:44:26.366Z,375
2019-04-14T13:45:36.351Z,370
2019-04-14T13:46:46.532Z,365
2019-04-14T13:47:56.479Z,360
2019-04-14T13:49:06.182Z,350
2019-04-14T13:50:16.126Z,340
2019-04-14T13:51:25.904Z,340
2019-04-14T13:52:50.477Z,340
2019-04-14T13:54:00.446Z,350
2019-04-14T13:55:10.212Z,360
2019-04-14T13:56:19.923Z,375
2019-04-14T13:57:29.638Z,390
2019-04-14T13:58:43.950Z,410
2019-04-14T13:59:53.650Z,440
2019-04-14T14:01:03.353Z,445
2019-04-14T14:02:12.812Z,465
2019-04-14T14:03:22.769Z,500
2019-04-14T14:04:32.829Z,540
2019-04-14T14:05:45.984Z,575
2019-04-14T14:06:55.748Z,630
2019-04-14T14:08:05.209Z,840
2019-04-14T14:09:15.226Z,755
2019-04-14T14:10:24.688Z,780
2019-04-14T14:11:37.152Z,1120
2019-04-14T14:12:46.870Z,1430
2019-04-14T14:13:56.604Z,1000
2019-04-14T14:15:06.595Z,1230
2019-04-14T14:16:18.628Z,2250
2019-04-14T14:17:28.339Z,1755
2019-04-14T14:18:38.308Z,2005
2019-04-14T14:19:48.279Z,935
2019-04-14T14:20:58.010Z,740
2019-04-14T14:22:08.005Z,690
2019-04-14T14:23:17.708Z,625
2019-04-14T14:24:27.423Z,615
2019-04-14T14:25:37.145Z,610
2019-04-14T14:26:46.599Z,625
2019-04-14T14:27:56.335Z,630
2019-04-14T14:29:06.322Z,635
2019-04-14T14:30:16.046Z,680
2019-04-14T14:31:26.021Z,670
2019-04-14T14:32:36.027Z,645
2019-04-14T14:33:47.875Z,660
2019-04-14T14:34:57.869Z,665
2019-04-14T14:36:07.827Z,1325
2019-04-14T14:37:17.794Z,655
2019-04-14T14:38:27.750Z,650
2019-04-14T14:39:37.461Z,535
2019-04-14T14:40:49.090Z,465
2019-04-14T14:41:59.437Z,400
2019-04-14T14:43:09.167Z,350
2019-04-14T14:44:18.894Z,335
2019-04-14T14:45:28.849Z,335
2019-04-14T14:46:41.937Z,345
2019-04-14T14:47:51.914Z,360
2019-04-14T14:49:01.870Z,380
2019-04-14T14:50:11.843Z,395
2019-04-14T14:51:21.806Z,400
2019-04-14T14:52:31.538Z,420
2019-04-14T14:53:41.241Z,500
2019-04-14T14:54:50.939Z,530
2019-04-14T14:56:00.402Z,565
2019-04-14T14:57:10.203Z,810
2019-04-14T14:58:20.167Z,405
2019-04-14T14:59:30.131Z,370
2019-04-14T15:00:40.104Z,375
2019-04-14T15:01:49.566Z,400
2019-04-14T15:02:59.062Z,435
2019-04-14T15:04:09.677Z,480
2019-04-14T15:05:19.142Z,525
2019-04-14T15:06:29.109Z,515
2019-04-14T15:07:38.827Z,500
2019-04-14T15:08:48.800Z,485
2019-04-14T15:09:58.515Z,435
2019-04-14T15:11:11.470Z,400
2019-04-14T15:12:21.430Z,380
2019-04-14T15:13:31.248Z,350
2019-04-14T15:14:40.956Z,335
2019-04-14T15:15:50.667Z,325
2019-04-14T15:17:00.619Z,315
2019-04-14T15:18:10.597Z,310
2019-04-14T15:19:20.767Z,305
2019-04-14T15:20:30.743Z,295
2019-04-14T15:21:40.708Z,295
2019-04-14T15:22:52.316Z,290
2019-04-14T15:24:02.377Z,290
2019-04-14T15:25:12.345Z,285
2019-04-14T15:26:21.814Z,280
2019-04-14T15:27:31.526Z,280
2019-04-14T15:28:41.482Z,280
2019-04-14T15:29:51.426Z,280
2019-04-14T15:31:01.401Z,280
2019-04-14T15:32:10.848Z,275
2019-04-14T15:33:20.856Z,275
2019-04-14T15:34:30.326Z,280
2019-04-14T15:35:40.286Z,290
2019-04-14T15:36:50.258Z,310
2019-04-14T15:38:00.221Z,310
2019-04-14T15:39:09.933Z,310
2019-04-14T15:40:19.883Z,305
2019-04-14T15:41:29.894Z,305
2019-04-14T15:42:39.850Z,300
2019-04-14T15:43:49.813Z,300
2019-04-14T15:44:59.787Z,305
2019-04-14T15:46:09.754Z,310
2019-04-14T15:47:19.499Z,315
2019-04-14T15:48:29.216Z,305
2019-04-14T15:49:39.174Z,295
2019-04-14T15:50:49.119Z,285
2019-04-14T15:51:58.822Z,270
2019-04-14T15:53:08.781Z,265
2019-04-14T15:54:18.753Z,265
2019-04-14T15:55:28.746Z,265
2019-04-14T15:56:38.411Z,270
2019-04-14T15:57:48.380Z,260
2019-04-14T15:58:58.461Z,270
2019-04-14T16:00:08.418Z,265
2019-04-14T16:01:18.123Z,265
2019-04-14T16:02:28.118Z,275
2019-04-14T16:03:37.864Z,280
2019-04-14T16:04:47.572Z,300
2019-04-14T16:05:57.725Z,285
2019-04-14T16:07:07.676Z,285
2019-04-14T16:08:17.381Z,270
2019-04-14T16:09:27.611Z,260
2019-04-14T16:10:37.589Z,240
2019-04-14T16:11:49.638Z,225
2019-04-14T16:12:59.295Z,240
2019-04-14T16:14:09.277Z,195
2019-04-14T16:15:19.243Z,195
2019-04-14T16:16:28.962Z,190
2019-04-14T16:17:38.678Z,175
2019-04-14T16:18:48.407Z,155
2019-04-14T16:19:58.108Z,145
2019-04-14T16:21:07.561Z,135
2019-04-14T16:22:17.298Z,130
2019-04-14T16:23:27.021Z,130
2019-04-14T16:24:36.775Z,125
2019-04-14T16:25:46.255Z,115
2019-04-14T16:26:55.710Z,110
2019-04-14T16:28:05.703Z,105
2019-04-14T16:29:15.510Z,100
2019-04-14T16:30:25.503Z,90
2019-04-14T16:31:35.238Z,90
2019-04-14T16:32:45.207Z,85
2019-04-14T16:33:55.162Z,80
2019-04-14T16:35:04.631Z,80
2019-04-14T16:36:14.106Z,75
2019-04-14T16:37:24.083Z,70
2019-04-14T16:38:34.076Z,70
2019-04-14T16:39:43.802Z,70
2019-04-14T16:40:53.815Z,65
2019-04-14T16:42:03.822Z,65
2019-04-14T16:43:13.851Z,65
2019-04-14T16:44:23.826Z,60
2019-04-14T16:45:33.781Z,60
2019-04-14T16:46:43.741Z,55
2019-04-14T16:47:53.476Z,55
2019-04-14T16:49:03.436Z,55
2019-04-14T16:50:12.930Z,55
2019-04-14T16:51:22.899Z,55
2019-04-14T16:52:32.610Z,55
2019-04-14T16:53:42.627Z,55
2019-04-14T16:54:52.610Z,55
2019-04-14T16:56:02.574Z,55
2019-04-14T16:57:12.064Z,55
2019-04-14T16:58:21.769Z,50
2019-04-14T16:59:31.706Z,50
2019-04-14T17:00:44.429Z,50
2019-04-14T17:01:54.411Z,50
2019-04-14T17:03:04.393Z,45
2019-04-14T17:04:14.350Z,45
2019-04-14T17:05:24.404Z,45
2019-04-14T17:06:34.491Z,40
2019-04-14T17:07:43.717Z,40
2019-04-14T17:08:53.732Z,40
2019-04-14T17:10:03.697Z,35
2019-04-14T17:11:13.418Z,35
2019-04-14T17:12:23.145Z,30
2019-04-14T17:13:33.114Z,30
2019-04-14T17:14:45.790Z,30
2019-04-14T17:15:55.810Z,30
2019-04-14T17:17:05.987Z,25
2019-04-14T17:18:15.969Z,25
2019-04-14T17:19:26.151Z,25
2019-04-14T17:20:35.922Z,25
2019-04-14T17:21:45.902Z,20
2019-04-14T17:22:55.817Z,20
2019-04-14T17:24:18.828Z,20
2019-04-14T17:25:28.588Z,20
2019-04-14T17:26:41.435Z,20
2019-04-14T17:27:51.609Z,15
2019-04-14T17:29:01.585Z,15
2019-04-14T17:30:11.565Z,15
2019-04-14T17:31:21.321Z,15
2019-04-14T17:32:31.119Z,15
2019-04-14T17:33:41.101Z,15
2019-04-14T17:34:51.071Z,15
2019-04-14T17:36:01.068Z,15
2019-04-14T17:37:10.793Z,15
2019-04-14T17:38:20.761Z,15
2019-04-14T17:39:31.806Z,15
2019-04-14T17:40:42.715Z,15